sensor_id;sensor_type;location;lat;lon;timestamp;temperature;humidity
21189;DHT22;39071;52.420;20.896;2022-10-31T00:01:29;8.50;1.00
21189;DHT22;39071;52.420;20.896;2022-10-31T00:03:55;8.50;1.00
21189;DHT22;39071;52.420;20.896;2022-10-31T00:06:21;8.50;1.00
21189;DHT22;39071;52.420;20.896;2022-10-31T00:09:01;8.40;1.00
21189;DHT22;39071;52.420;20.896;2022-10-31T00:11:28;8.40;1.00
21189;DHT22;39071;52.420;20.896;2022-10-31T00:13:54;8.40;99.90
21189;DHT22;39071;52.420;20.896;2022-10-31T00:16:22;8.40;1.00
21189;DHT22;39071;52.420;20.896;2022-10-31T00:18:53;8.30;1.00
21189;DHT22;39071;52.420;20.896;2022-10-31T00:21:19;8.30;99.90
21189;DHT22;39071;52.420;20.896;2022-10-31T00:23:45;8.30;99.90
21189;DHT22;39071;52.420;20.896;2022-10-31T00:26:11;8.30;99.90
21189;DHT22;39071;52.420;20.896;2022-10-31T00:28:36;8.30;99.90
21189;DHT22;39071;52.420;20.896;2022-10-31T00:31:04;8.30;99.90
21189;DHT22;39071;52.420;20.896;2022-10-31T00:33:32;8.20;99.90
21189;DHT22;39071;52.420;20.896;2022-10-31T00:35:58;8.20;99.90
21189;DHT22;39071;52.420;20.896;2022-10-31T00:38:24;8.20;99.90
21189;DHT22;39071;52.420;20.896;2022-10-31T00:40:49;8.10;99.90
21189;DHT22;39071;52.420;20.896;2022-10-31T00:43:15;8.10;99.90
21189;DHT22;39071;52.420;20.896;2022-10-31T00:45:42;8.10;99.90
21189;DHT22;39071;52.420;20.896;2022-10-31T00:48:08;8.10;99.90
21189;DHT22;39071;52.420;20.896;2022-10-31T00:50:34;8.10;99.90
21189;DHT22;39071;52.420;20.896;2022-10-31T00:52:59;8.00;99.90
21189;DHT22;39071;52.420;20.896;2022-10-31T00:55:25;8.00;99.90
21189;DHT22;39071;52.420;20.896;2022-10-31T00:57:51;8.00;99.90
21189;DHT22;39071;52.420;20.896;2022-10-31T01:00:17;7.90;99.90
21189;DHT22;39071;52.420;20.896;2022-10-31T01:02:42;7.80;99.90
21189;DHT22;39071;52.420;20.896;2022-10-31T01:05:08;7.80;99.90
21189;DHT22;39071;52.420;20.896;2022-10-31T01:07:37;7.80;99.90
21189;DHT22;39071;52.420;20.896;2022-10-31T01:10:05;7.80;99.90
21189;DHT22;39071;52.420;20.896;2022-10-31T01:12:36;7.80;99.90
21189;DHT22;39071;52.420;20.896;2022-10-31T01:15:02;7.80;99.90
21189;DHT22;39071;52.420;20.896;2022-10-31T01:17:28;7.70;99.90
21189;DHT22;39071;52.420;20.896;2022-10-31T01:19:54;7.70;99.90
21189;DHT22;39071;52.420;20.896;2022-10-31T01:22:19;7.70;99.90
21189;DHT22;39071;52.420;20.896;2022-10-31T01:24:45;7.70;99.90
21189;DHT22;39071;52.420;20.896;2022-10-31T01:27:11;7.60;99.90
21189;DHT22;39071;52.420;20.896;2022-10-31T01:29:36;7.70;99.90
21189;DHT22;39071;52.420;20.896;2022-10-31T01:32:02;7.60;99.90
21189;DHT22;39071;52.420;20.896;2022-10-31T01:34:28;7.60;99.90
21189;DHT22;39071;52.420;20.896;2022-10-31T01:36:54;7.60;99.90
21189;DHT22;39071;52.420;20.896;2022-10-31T01:39:19;7.50;99.90
21189;DHT22;39071;52.420;20.896;2022-10-31T01:41:48;7.50;99.90
21189;DHT22;39071;52.420;20.896;2022-10-31T01:49:21;7.50;99.90
21189;DHT22;39071;52.420;20.896;2022-10-31T01:51:53;7.60;99.90
21189;DHT22;39071;52.420;20.896;2022-10-31T01:54:25;7.50;99.90
21189;DHT22;39071;52.420;20.896;2022-10-31T01:56:55;7.50;99.90
21189;DHT22;39071;52.420;20.896;2022-10-31T01:59:22;7.50;99.90
21189;DHT22;39071;52.420;20.896;2022-10-31T02:01:50;7.50;99.90
21189;DHT22;39071;52.420;20.896;2022-10-31T02:04:18;7.40;99.90
21189;DHT22;39071;52.420;20.896;2022-10-31T02:07:06;7.40;99.90
21189;DHT22;39071;52.420;20.896;2022-10-31T02:09:32;7.40;99.90
21189;DHT22;39071;52.420;20.896;2022-10-31T02:12:00;7.40;99.90
21189;DHT22;39071;52.420;20.896;2022-10-31T02:14:28;7.40;99.90
21189;DHT22;39071;52.420;20.896;2022-10-31T02:16:54;7.40;99.90
21189;DHT22;39071;52.420;20.896;2022-10-31T02:19:51;7.40;70.40
21189;DHT22;39071;52.420;20.896;2022-10-31T02:37:19;7.20;99.90
21189;DHT22;39071;52.420;20.896;2022-10-31T02:40:01;7.10;99.90
21189;DHT22;39071;52.420;20.896;2022-10-31T02:42:39;7.10;99.90
21189;DHT22;39071;52.420;20.896;2022-10-31T02:45:25;7.10;99.90
21189;DHT22;39071;52.420;20.896;2022-10-31T02:47:55;7.00;99.90
21189;DHT22;39071;52.420;20.896;2022-10-31T02:50:28;7.00;99.90
21189;DHT22;39071;52.420;20.896;2022-10-31T02:52:55;7.00;99.90
21189;DHT22;39071;52.420;20.896;2022-10-31T02:57:59;7.00;99.90
21189;DHT22;39071;52.420;20.896;2022-10-31T03:00:25;7.00;99.90
21189;DHT22;39071;52.420;20.896;2022-10-31T03:03:06;7.00;99.90
21189;DHT22;39071;52.420;20.896;2022-10-31T03:06:25;7.00;99.90
21189;DHT22;39071;52.420;20.896;2022-10-31T03:11:06;7.00;99.90
21189;DHT22;39071;52.420;20.896;2022-10-31T03:13:41;7.00;1.00
21189;DHT22;39071;52.420;20.896;2022-10-31T03:19:10;7.00;99.90
21189;DHT22;39071;52.420;20.896;2022-10-31T03:21:44;7.00;99.90
21189;DHT22;39071;52.420;20.896;2022-10-31T03:24:11;7.00;99.90
21189;DHT22;39071;52.420;20.896;2022-10-31T03:26:49;7.10;99.90
21189;DHT22;39071;52.420;20.896;2022-10-31T03:29:20;7.00;99.90
21189;DHT22;39071;52.420;20.896;2022-10-31T03:32:03;7.00;99.90
21189;DHT22;39071;52.420;20.896;2022-10-31T03:34:31;7.10;99.90
21189;DHT22;39071;52.420;20.896;2022-10-31T03:37:02;7.10;99.90
21189;DHT22;39071;52.420;20.896;2022-10-31T03:39:29;7.00;99.90
21189;DHT22;39071;52.420;20.896;2022-10-31T03:47:30;6.90;99.90
21189;DHT22;39071;52.420;20.896;2022-10-31T03:49:56;6.80;99.90
21189;DHT22;39071;52.420;20.896;2022-10-31T03:55:11;6.70;99.90
21189;DHT22;39071;52.420;20.896;2022-10-31T03:57:50;6.80;99.90
21189;DHT22;39071;52.420;20.896;2022-10-31T04:00:17;6.70;1.00
21189;DHT22;39071;52.420;20.896;2022-10-31T04:05:32;6.70;99.90
21189;DHT22;39071;52.420;20.896;2022-10-31T04:08:00;6.80;99.90
21189;DHT22;39071;52.420;20.896;2022-10-31T04:10:28;6.70;99.90
21189;DHT22;39071;52.420;20.896;2022-10-31T04:13:02;6.70;99.90
21189;DHT22;39071;52.420;20.896;2022-10-31T04:15:30;6.60;99.90
21189;DHT22;39071;52.420;20.896;2022-10-31T04:17:58;6.70;99.90
21189;DHT22;39071;52.420;20.896;2022-10-31T04:20:38;6.60;1.00
21189;DHT22;39071;52.420;20.896;2022-10-31T04:23:05;6.60;1.00
21189;DHT22;39071;52.420;20.896;2022-10-31T04:25:31;6.60;1.00
21189;DHT22;39071;52.420;20.896;2022-10-31T04:27:56;6.50;1.00
21189;DHT22;39071;52.420;20.896;2022-10-31T04:30:22;6.50;1.00
21189;DHT22;39071;52.420;20.896;2022-10-31T04:32:48;6.60;1.00
21189;DHT22;39071;52.420;20.896;2022-10-31T04:35:14;6.60;1.00
21189;DHT22;39071;52.420;20.896;2022-10-31T04:37:39;6.60;1.00
21189;DHT22;39071;52.420;20.896;2022-10-31T04:40:05;6.60;1.00
21189;DHT22;39071;52.420;20.896;2022-10-31T04:42:32;6.60;1.00
21189;DHT22;39071;52.420;20.896;2022-10-31T04:44:57;6.60;1.00
21189;DHT22;39071;52.420;20.896;2022-10-31T04:47:23;6.60;1.00
21189;DHT22;39071;52.420;20.896;2022-10-31T04:49:49;6.60;1.00
21189;DHT22;39071;52.420;20.896;2022-10-31T04:52:14;6.60;1.00
21189;DHT22;39071;52.420;20.896;2022-10-31T04:54:40;6.60;1.00
21189;DHT22;39071;52.420;20.896;2022-10-31T04:57:06;6.60;1.00
21189;DHT22;39071;52.420;20.896;2022-10-31T04:59:31;6.60;1.00
21189;DHT22;39071;52.420;20.896;2022-10-31T05:01:57;6.60;1.00
21189;DHT22;39071;52.420;20.896;2022-10-31T05:04:23;6.60;1.00
21189;DHT22;39071;52.420;20.896;2022-10-31T05:06:49;6.50;1.00
21189;DHT22;39071;52.420;20.896;2022-10-31T05:09:14;6.50;1.00
21189;DHT22;39071;52.420;20.896;2022-10-31T05:11:40;6.60;1.00
21189;DHT22;39071;52.420;20.896;2022-10-31T05:14:06;6.60;1.00
21189;DHT22;39071;52.420;20.896;2022-10-31T05:16:31;6.60;99.90
21189;DHT22;39071;52.420;20.896;2022-10-31T05:18:57;6.50;99.90
21189;DHT22;39071;52.420;20.896;2022-10-31T05:21:23;6.50;1.00
21189;DHT22;39071;52.420;20.896;2022-10-31T05:23:49;6.50;99.90
21189;DHT22;39071;52.420;20.896;2022-10-31T05:26:14;6.60;1.00
21189;DHT22;39071;52.420;20.896;2022-10-31T05:28:40;6.50;1.00
21189;DHT22;39071;52.420;20.896;2022-10-31T05:31:06;6.70;1.00
21189;DHT22;39071;52.420;20.896;2022-10-31T05:33:31;6.80;99.90
21189;DHT22;39071;52.420;20.896;2022-10-31T05:35:57;6.80;1.00
21189;DHT22;39071;52.420;20.896;2022-10-31T05:38:23;6.80;99.90
21189;DHT22;39071;52.420;20.896;2022-10-31T05:40:48;6.90;1.00
21189;DHT22;39071;52.420;20.896;2022-10-31T05:43:14;7.00;1.00
21189;DHT22;39071;52.420;20.896;2022-10-31T05:45:40;7.10;1.00
21189;DHT22;39071;52.420;20.896;2022-10-31T05:48:05;7.10;1.00
21189;DHT22;39071;52.420;20.896;2022-10-31T05:50:31;7.20;1.00
21189;DHT22;39071;52.420;20.896;2022-10-31T05:53:03;7.20;1.00
21189;DHT22;39071;52.420;20.896;2022-10-31T05:55:29;7.30;1.00
21189;DHT22;39071;52.420;20.896;2022-10-31T05:57:55;7.40;99.90
21189;DHT22;39071;52.420;20.896;2022-10-31T06:00:22;7.50;99.90
21189;DHT22;39071;52.420;20.896;2022-10-31T06:02:48;7.50;1.00
21189;DHT22;39071;52.420;20.896;2022-10-31T06:05:15;7.50;1.00
21189;DHT22;39071;52.420;20.896;2022-10-31T06:07:42;7.60;1.00
21189;DHT22;39071;52.420;20.896;2022-10-31T06:10:09;7.60;1.00
21189;DHT22;39071;52.420;20.896;2022-10-31T06:12:36;7.70;92.30
21189;DHT22;39071;52.420;20.896;2022-10-31T06:15:05;7.80;92.40
21189;DHT22;39071;52.420;20.896;2022-10-31T06:17:31;8.00;60.60
21189;DHT22;39071;52.420;20.896;2022-10-31T06:19:57;8.10;1.00
21189;DHT22;39071;52.420;20.896;2022-10-31T06:22:23;8.20;1.00
21189;DHT22;39071;52.420;20.896;2022-10-31T06:24:48;8.30;1.00
21189;DHT22;39071;52.420;20.896;2022-10-31T06:27:14;8.30;1.00
21189;DHT22;39071;52.420;20.896;2022-10-31T06:29:40;8.40;1.00
21189;DHT22;39071;52.420;20.896;2022-10-31T06:32:05;8.50;1.00
21189;DHT22;39071;52.420;20.896;2022-10-31T06:34:31;8.60;99.90
21189;DHT22;39071;52.420;20.896;2022-10-31T06:36:57;8.60;1.00
21189;DHT22;39071;52.420;20.896;2022-10-31T06:39:22;8.70;1.00
21189;DHT22;39071;52.420;20.896;2022-10-31T06:41:48;8.70;1.00
21189;DHT22;39071;52.420;20.896;2022-10-31T06:44:14;8.80;1.00
21189;DHT22;39071;52.420;20.896;2022-10-31T06:46:39;8.90;1.00
21189;DHT22;39071;52.420;20.896;2022-10-31T06:49:05;9.00;99.90
21189;DHT22;39071;52.420;20.896;2022-10-31T06:51:31;9.00;99.90
21189;DHT22;39071;52.420;20.896;2022-10-31T06:53:57;9.00;99.90
21189;DHT22;39071;52.420;20.896;2022-10-31T06:56:22;9.10;99.90
21189;DHT22;39071;52.420;20.896;2022-10-31T06:58:48;9.20;99.90
21189;DHT22;39071;52.420;20.896;2022-10-31T07:01:14;9.20;99.90
21189;DHT22;39071;52.420;20.896;2022-10-31T07:03:39;9.30;99.90
21189;DHT22;39071;52.420;20.896;2022-10-31T07:06:05;9.40;99.90
21189;DHT22;39071;52.420;20.896;2022-10-31T07:08:31;9.50;99.90
21189;DHT22;39071;52.420;20.896;2022-10-31T07:10:57;9.60;35.90
21189;DHT22;39071;52.420;20.896;2022-10-31T07:13:23;9.80;1.00
21189;DHT22;39071;52.420;20.896;2022-10-31T07:15:54;9.80;99.90
21189;DHT22;39071;52.420;20.896;2022-10-31T07:18:20;9.90;1.00
21189;DHT22;39071;52.420;20.896;2022-10-31T07:20:46;10.00;1.00
21189;DHT22;39071;52.420;20.896;2022-10-31T07:23:13;10.00;94.50
21189;DHT22;39071;52.420;20.896;2022-10-31T07:25:39;10.50;99.90
21189;DHT22;39071;52.420;20.896;2022-10-31T07:28:05;11.00;1.00
21189;DHT22;39071;52.420;20.896;2022-10-31T07:30:31;11.30;99.90
21189;DHT22;39071;52.420;20.896;2022-10-31T07:32:57;12.00;1.00
21189;DHT22;39071;52.420;20.896;2022-10-31T07:35:25;12.60;99.90
21189;DHT22;39071;52.420;20.896;2022-10-31T07:37:51;12.80;1.00
21189;DHT22;39071;52.420;20.896;2022-10-31T07:40:18;13.10;99.90
21189;DHT22;39071;52.420;20.896;2022-10-31T07:42:46;12.80;1.00
21189;DHT22;39071;52.420;20.896;2022-10-31T07:45:16;12.90;1.00
21189;DHT22;39071;52.420;20.896;2022-10-31T07:47:44;13.00;1.00
21189;DHT22;39071;52.420;20.896;2022-10-31T07:50:12;12.90;99.90
21189;DHT22;39071;52.420;20.896;2022-10-31T07:52:38;12.60;99.90
21189;DHT22;39071;52.420;20.896;2022-10-31T07:55:05;13.00;1.00
21189;DHT22;39071;52.420;20.896;2022-10-31T07:57:31;13.30;99.90
21189;DHT22;39071;52.420;20.896;2022-10-31T07:59:56;14.00;1.00
21189;DHT22;39071;52.420;20.896;2022-10-31T08:02:23;14.40;1.00
21189;DHT22;39071;52.420;20.896;2022-10-31T08:04:49;15.20;99.90
21189;DHT22;39071;52.420;20.896;2022-10-31T08:07:15;15.30;99.90
21189;DHT22;39071;52.420;20.896;2022-10-31T08:09:41;15.30;99.90
21189;DHT22;39071;52.420;20.896;2022-10-31T08:12:07;15.60;99.90
21189;DHT22;39071;52.420;20.896;2022-10-31T08:14:32;15.50;99.90
21189;DHT22;39071;52.420;20.896;2022-10-31T08:16:58;14.60;99.90
21189;DHT22;39071;52.420;20.896;2022-10-31T08:19:24;14.50;99.90
21189;DHT22;39071;52.420;20.896;2022-10-31T08:21:53;15.10;99.90
21189;DHT22;39071;52.420;20.896;2022-10-31T08:24:23;15.70;99.90
21189;DHT22;39071;52.420;20.896;2022-10-31T08:26:49;16.10;99.90
21189;DHT22;39071;52.420;20.896;2022-10-31T08:29:15;16.10;59.10
21189;DHT22;39071;52.420;20.896;2022-10-31T08:31:42;16.10;37.00
21189;DHT22;39071;52.420;20.896;2022-10-31T08:34:07;16.40;40.80
21189;DHT22;39071;52.420;20.896;2022-10-31T08:36:33;16.40;1.00
21189;DHT22;39071;52.420;20.896;2022-10-31T08:38:59;15.90;29.20
21189;DHT22;39071;52.420;20.896;2022-10-31T08:41:25;16.20;81.20
21189;DHT22;39071;52.420;20.896;2022-10-31T08:43:51;16.00;6.80
21189;DHT22;39071;52.420;20.896;2022-10-31T08:46:17;16.00;54.80
21189;DHT22;39071;52.420;20.896;2022-10-31T08:48:43;16.30;91.10
21189;DHT22;39071;52.420;20.896;2022-10-31T08:51:10;16.50;23.90
21189;DHT22;39071;52.420;20.896;2022-10-31T08:53:35;16.60;9.10
21189;DHT22;39071;52.420;20.896;2022-10-31T08:56:01;16.90;1.00
21189;DHT22;39071;52.420;20.896;2022-10-31T08:58:27;17.00;1.00
21189;DHT22;39071;52.420;20.896;2022-10-31T09:00:54;16.90;1.00
21189;DHT22;39071;52.420;20.896;2022-10-31T09:03:30;17.20;1.00
21189;DHT22;39071;52.420;20.896;2022-10-31T09:06:01;16.90;1.00
21189;DHT22;39071;52.420;20.896;2022-10-31T09:08:30;16.90;1.00
21189;DHT22;39071;52.420;20.896;2022-10-31T09:10:56;16.90;1.00
21189;DHT22;39071;52.420;20.896;2022-10-31T09:13:22;16.70;1.00
21189;DHT22;39071;52.420;20.896;2022-10-31T09:15:49;16.60;1.00
21189;DHT22;39071;52.420;20.896;2022-10-31T09:18:17;16.50;1.00
21189;DHT22;39071;52.420;20.896;2022-10-31T09:20:44;16.10;50.50
21189;DHT22;39071;52.420;20.896;2022-10-31T09:23:13;16.40;46.30
21189;DHT22;39071;52.420;20.896;2022-10-31T09:25:39;16.50;19.30
21189;DHT22;39071;52.420;20.896;2022-10-31T09:28:06;16.50;39.30
21189;DHT22;39071;52.420;20.896;2022-10-31T09:30:33;16.50;29.50
21189;DHT22;39071;52.420;20.896;2022-10-31T09:33:04;16.40;61.90
21189;DHT22;39071;52.420;20.896;2022-10-31T09:35:30;16.60;43.70
21189;DHT22;39071;52.420;20.896;2022-10-31T09:38:03;16.80;38.60
21189;DHT22;39071;52.420;20.896;2022-10-31T09:43:25;16.90;27.60
21189;DHT22;39071;52.420;20.896;2022-10-31T09:54:14;17.70;1.00
21189;DHT22;39071;52.420;20.896;2022-10-31T09:56:40;17.80;1.00
21189;DHT22;39071;52.420;20.896;2022-10-31T09:59:24;17.90;1.00
21189;DHT22;39071;52.420;20.896;2022-10-31T10:02:05;17.90;1.00
21189;DHT22;39071;52.420;20.896;2022-10-31T10:07:25;18.30;1.00
21189;DHT22;39071;52.420;20.896;2022-10-31T10:09:56;18.50;1.00
21189;DHT22;39071;52.420;20.896;2022-10-31T10:12:47;18.60;1.00
21189;DHT22;39071;52.420;20.896;2022-10-31T10:15:26;18.80;1.00
21189;DHT22;39071;52.420;20.896;2022-10-31T10:25:40;18.60;1.00
21189;DHT22;39071;52.420;20.896;2022-10-31T10:28:22;18.60;1.00
21189;DHT22;39071;52.420;20.896;2022-10-31T10:33:22;18.80;1.00
21189;DHT22;39071;52.420;20.896;2022-10-31T10:35:52;18.60;1.00
21189;DHT22;39071;52.420;20.896;2022-10-31T10:38:34;18.30;1.00
21189;DHT22;39071;52.420;20.896;2022-10-31T10:41:06;18.30;1.00
21189;DHT22;39071;52.420;20.896;2022-10-31T10:43:38;18.30;1.00
21189;DHT22;39071;52.420;20.896;2022-10-31T10:46:27;18.20;1.00
21189;DHT22;39071;52.420;20.896;2022-10-31T10:54:38;18.60;1.00
21189;DHT22;39071;52.420;20.896;2022-10-31T10:57:15;18.50;1.00
21189;DHT22;39071;52.420;20.896;2022-10-31T10:59:44;18.60;1.00
21189;DHT22;39071;52.420;20.896;2022-10-31T11:02:22;18.60;1.00
21189;DHT22;39071;52.420;20.896;2022-10-31T11:04:54;18.80;1.00
21189;DHT22;39071;52.420;20.896;2022-10-31T11:07:21;18.60;1.00
21189;DHT22;39071;52.420;20.896;2022-10-31T11:09:47;18.60;1.00
21189;DHT22;39071;52.420;20.896;2022-10-31T11:12:29;18.60;1.00
21189;DHT22;39071;52.420;20.896;2022-10-31T11:14:58;18.80;1.00
21189;DHT22;39071;52.420;20.896;2022-10-31T11:17:38;19.00;1.00
21189;DHT22;39071;52.420;20.896;2022-10-31T11:23:22;19.20;1.00
21189;DHT22;39071;52.420;20.896;2022-10-31T11:25:51;19.20;1.00
21189;DHT22;39071;52.420;20.896;2022-10-31T11:28:18;19.30;1.00
21189;DHT22;39071;52.420;20.896;2022-10-31T11:31:04;19.30;1.00
21189;DHT22;39071;52.420;20.896;2022-10-31T11:33:34;19.50;1.00
21189;DHT22;39071;52.420;20.896;2022-10-31T11:36:03;19.60;1.00
21189;DHT22;39071;52.420;20.896;2022-10-31T11:38:41;19.70;1.00
21189;DHT22;39071;52.420;20.896;2022-10-31T11:41:14;19.60;1.00
21189;DHT22;39071;52.420;20.896;2022-10-31T11:44:17;19.40;1.00
21189;DHT22;39071;52.420;20.896;2022-10-31T11:46:52;19.40;1.00
21189;DHT22;39071;52.420;20.896;2022-10-31T11:49:36;19.40;1.00
